createdAt,value
2023-05-20T00:02:31.390Z,11.40
2023-05-20T00:17:33.135Z,11.03
2023-05-20T00:32:35.463Z,11.07
2023-05-20T00:47:37.434Z,9.30
2023-05-20T01:02:39.307Z,10.47
2023-05-20T01:17:47.423Z,9.33
2023-05-20T01:32:58.202Z,9.33
2023-05-20T01:48:00.192Z,9.97
2023-05-20T02:03:03.696Z,9.40
2023-05-20T02:18:05.784Z,9.57
2023-05-20T02:33:09.073Z,10.47
2023-05-20T02:48:11.139Z,8.73
2023-05-20T03:03:13.727Z,9.30
2023-05-20T03:18:15.430Z,9.30
2023-05-20T03:33:17.166Z,8.90
2023-05-20T03:48:18.934Z,9.87
2023-05-20T04:03:20.757Z,10.67
2023-05-20T04:18:22.567Z,10.83
2023-05-20T04:33:24.234Z,11.20
2023-05-20T04:48:25.923Z,12.53
2023-05-20T05:03:27.687Z,13.00
2023-05-20T05:18:29.644Z,14.80
2023-05-20T05:33:31.600Z,15.70
2023-05-20T05:48:33.632Z,18.07
2023-05-20T06:03:35.444Z,18.43
2023-05-20T06:18:37.161Z,19.20
2023-05-20T06:33:39.024Z,21.63
2023-05-20T06:48:40.923Z,20.97
2023-05-20T07:03:44.398Z,21.30
2023-05-20T07:18:46.288Z,20.87
2023-05-20T07:33:47.970Z,21.80
2023-05-20T07:48:49.706Z,23.37
2023-05-20T08:03:51.460Z,23.53
2023-05-20T08:18:53.385Z,22.73
2023-05-20T08:33:55.206Z,23.07
2023-05-20T08:48:57.090Z,24.27
2023-05-20T09:03:58.995Z,25.00
2023-05-20T09:19:01.357Z,25.07
2023-05-20T09:34:03.655Z,26.00
2023-05-20T09:49:07.906Z,27.03
2023-05-20T10:04:12.689Z,21.87
2023-05-20T10:19:32.890Z,25.77
2023-05-20T10:34:46.924Z,26.40
2023-05-20T10:49:48.678Z,24.13
2023-05-20T11:04:50.736Z,24.53
2023-05-20T11:19:52.499Z,26.37
2023-05-20T11:34:54.555Z,25.33
2023-05-20T11:49:56.777Z,25.30
2023-05-20T12:04:58.616Z,23.00
2023-05-20T12:20:00.779Z,26.30
2023-05-20T12:35:02.901Z,24.33
2023-05-20T12:50:05.087Z,21.37
2023-05-20T13:05:07.168Z,20.87
2023-05-20T13:20:11.170Z,21.73
2023-05-20T13:35:13.228Z,22.67
2023-05-20T13:50:15.338Z,22.10
2023-05-20T14:05:18.926Z,23.23
2023-05-20T14:20:20.751Z,21.67
2023-05-20T14:35:22.659Z,22.43
2023-05-20T14:50:24.409Z,24.27
2023-05-20T15:05:26.241Z,25.07
2023-05-20T15:20:28.020Z,24.60
2023-05-20T15:35:29.835Z,22.50
2023-05-20T15:50:32.006Z,24.23
2023-05-20T16:05:34.066Z,22.40
2023-05-20T16:20:36.151Z,23.47
2023-05-20T16:35:38.309Z,21.20
2023-05-20T16:50:39.983Z,21.63
2023-05-20T17:05:43.746Z,21.83
2023-05-20T17:20:45.762Z,22.80
2023-05-20T17:35:47.543Z,19.53
2023-05-20T17:50:49.415Z,21.30
2023-05-20T18:05:51.669Z,20.33
2023-05-20T18:20:54.459Z,18.87
2023-05-20T18:35:56.895Z,19.67
2023-05-20T18:50:58.788Z,19.37
2023-05-20T19:06:01.046Z,19.20
2023-05-20T19:21:02.974Z,21.57
2023-05-20T19:36:05.865Z,19.17
2023-05-20T19:51:07.957Z,19.33
2023-05-20T20:06:12.951Z,18.80
2023-05-20T20:21:15.009Z,17.57
2023-05-20T20:36:16.980Z,19.27
2023-05-20T20:51:18.972Z,17.53
2023-05-20T21:06:20.994Z,15.00
2023-05-20T21:21:22.708Z,16.57
2023-05-20T21:36:24.458Z,17.33
2023-05-20T21:51:26.121Z,14.87
2023-05-20T22:06:27.830Z,13.90
2023-05-20T22:21:32.133Z,13.47
2023-05-20T22:36:36.518Z,14.73
2023-05-20T23:06:40.488Z,13.43
2023-05-20T23:21:42.737Z,13.87
2023-05-20T23:36:45.787Z,15.43
2023-05-20T23:51:47.536Z,14.37
